createdAt,value
2022-10-09T00:01:06.235Z,95493.94
2022-10-09T00:03:34.482Z,95463.44
2022-10-09T00:06:01.576Z,95479.22
2022-10-09T00:08:28.314Z,95474.50
2022-10-09T00:10:55.444Z,95484.69
2022-10-09T00:13:22.679Z,95481.31
2022-10-09T00:15:49.411Z,95492.50
2022-10-09T00:18:18.576Z,95496.44
2022-10-09T00:20:46.882Z,95496.19
2022-10-09T00:23:17.703Z,95483.03
2022-10-09T00:25:58.360Z,95476.72
2022-10-09T00:28:27.372Z,95468.50
2022-10-09T00:30:54.641Z,95476.91
2022-10-09T00:33:21.950Z,95462.09
2022-10-09T00:35:49.104Z,95460.31
2022-10-09T00:38:16.876Z,95461.13
2022-10-09T00:40:43.615Z,95451.56
2022-10-09T00:43:37.820Z,95460.91
2022-10-09T00:46:05.206Z,95445.97
2022-10-09T00:48:33.798Z,95457.41
2022-10-09T00:51:02.177Z,95444.16
2022-10-09T00:53:30.807Z,95461.44
2022-10-09T00:55:58.423Z,95444.09
2022-10-09T00:58:25.870Z,95451.88
2022-10-09T01:00:53.257Z,95462.69
2022-10-09T01:03:19.985Z,95466.63
2022-10-09T01:06:10.442Z,95464.75
2022-10-09T01:09:01.334Z,95447.34
2022-10-09T01:11:32.181Z,95431.75
2022-10-09T01:14:17.239Z,95441.22
2022-10-09T01:16:53.650Z,95434.72
2022-10-09T01:19:44.991Z,95445.69
2022-10-09T01:22:33.701Z,95442.66
2022-10-09T01:25:07.500Z,95436.78
2022-10-09T01:27:37.350Z,95448.13
2022-10-09T01:30:08.502Z,95455.47
2022-10-09T01:32:47.563Z,95442.47
2022-10-09T01:35:15.609Z,95436.16
2022-10-09T01:37:45.786Z,95417.13
2022-10-09T01:40:16.217Z,95416.06
2022-10-09T01:42:43.386Z,95424.19
2022-10-09T01:45:10.951Z,95418.28
2022-10-09T01:47:38.381Z,95397.91
2022-10-09T01:50:27.437Z,95387.44
2022-10-09T01:53:00.321Z,95406.47
2022-10-09T01:56:03.791Z,95388.53
2022-10-09T01:58:47.456Z,95385.03
2022-10-09T02:01:17.986Z,95400.84
2022-10-09T02:03:49.086Z,95385.88
2022-10-09T02:06:17.750Z,95399.59
2022-10-09T02:08:47.119Z,95368.03
2022-10-09T02:11:15.443Z,95388.59
2022-10-09T02:13:44.596Z,95382.22
2022-10-09T02:16:22.556Z,95362.81
2022-10-09T02:18:58.377Z,95359.91
2022-10-09T02:21:30.556Z,95353.69
2022-10-09T02:23:59.099Z,95364.75
2022-10-09T02:26:26.995Z,95354.59
2022-10-09T02:28:54.783Z,95351.53
2022-10-09T02:31:31.167Z,95344.09
2022-10-09T02:34:04.094Z,95331.56
2022-10-09T02:36:31.713Z,95338.75
2022-10-09T02:38:58.709Z,95347.72
2022-10-09T02:41:26.615Z,95326.69
2022-10-09T02:43:53.847Z,95334.16
2022-10-09T02:46:21.150Z,95315.56
2022-10-09T02:48:48.293Z,95308.00
2022-10-09T02:51:15.038Z,95310.31
2022-10-09T02:53:41.830Z,95331.50
2022-10-09T02:56:08.914Z,95320.16
2022-10-09T02:58:36.401Z,95342.47
2022-10-09T03:01:05.076Z,95305.88
2022-10-09T03:03:32.490Z,95321.13
2022-10-09T03:06:02.397Z,95321.56
2022-10-09T03:08:29.191Z,95325.63
2022-10-09T03:10:56.389Z,95334.16
2022-10-09T03:13:23.831Z,95324.56
2022-10-09T03:15:50.608Z,95334.56
2022-10-09T03:18:18.286Z,95321.13
2022-10-09T03:20:45.306Z,95318.97
2022-10-09T03:23:12.150Z,95314.88
2022-10-09T03:25:39.085Z,95335.19
2022-10-09T03:28:05.917Z,95306.63
2022-10-09T03:30:33.474Z,95310.25
2022-10-09T03:33:00.278Z,95328.34
2022-10-09T03:35:26.970Z,95337.81
2022-10-09T03:37:53.645Z,95321.88
2022-10-09T03:40:20.642Z,95312.91
2022-10-09T03:42:47.947Z,95305.50
2022-10-09T03:45:15.469Z,95318.06
2022-10-09T03:47:42.123Z,95325.84
2022-10-09T03:50:09.349Z,95315.50
2022-10-09T03:52:36.416Z,95310.88
2022-10-09T03:55:04.966Z,95306.88
2022-10-09T03:57:31.924Z,95295.63
2022-10-09T03:59:58.614Z,95295.69
2022-10-09T04:02:25.588Z,95283.25
2022-10-09T04:04:52.364Z,95291.53
2022-10-09T04:07:19.109Z,95286.66
2022-10-09T04:09:45.832Z,95284.50
2022-10-09T04:12:12.525Z,95317.59
2022-10-09T04:14:39.514Z,95299.69
2022-10-09T04:17:06.264Z,95329.97
2022-10-09T04:19:33.451Z,95335.31
2022-10-09T04:22:00.545Z,95296.94
2022-10-09T04:24:27.264Z,95304.63
2022-10-09T04:26:54.046Z,95291.00
2022-10-09T04:29:21.046Z,95312.63
2022-10-09T04:31:47.913Z,95311.97
2022-10-09T04:34:15.476Z,95310.31
2022-10-09T04:36:42.193Z,95326.03
2022-10-09T04:39:08.901Z,95360.53
2022-10-09T04:41:38.263Z,95365.41
2022-10-09T04:44:06.005Z,95361.53
2022-10-09T04:46:32.902Z,95378.41
2022-10-09T04:49:00.361Z,95372.88
2022-10-09T04:51:27.058Z,95365.72
2022-10-09T04:54:00.302Z,95355.84
2022-10-09T04:56:27.405Z,95358.25
2022-10-09T04:58:54.115Z,95338.41
2022-10-09T05:01:25.990Z,95356.06
2022-10-09T05:03:53.483Z,95363.06
2022-10-09T05:06:22.020Z,95350.88
2022-10-09T05:08:49.498Z,95362.78
2022-10-09T05:11:19.622Z,95364.84
2022-10-09T05:13:49.665Z,95362.53
2022-10-09T05:16:19.722Z,95349.44
2022-10-09T05:18:49.717Z,95352.66
2022-10-09T05:21:17.593Z,95340.53
2022-10-09T05:23:44.454Z,95340.84
2022-10-09T05:26:14.877Z,95345.50
2022-10-09T05:28:42.406Z,95332.28
2022-10-09T05:31:09.621Z,95337.94
2022-10-09T05:33:36.802Z,95340.66
2022-10-09T05:36:05.850Z,95331.03
2022-10-09T05:38:34.784Z,95302.72
2022-10-09T05:41:04.962Z,95335.44
2022-10-09T05:43:37.217Z,95326.94
2022-10-09T05:46:17.940Z,95309.63
2022-10-09T05:48:51.009Z,95322.84
2022-10-09T05:51:24.337Z,95325.25
2022-10-09T05:53:51.592Z,95320.72
2022-10-09T05:56:27.546Z,95348.50
2022-10-09T05:58:57.042Z,95326.91
2022-10-09T06:01:26.627Z,95299.78
2022-10-09T06:03:55.539Z,95307.59
2022-10-09T06:06:24.869Z,95287.09
2022-10-09T06:08:51.990Z,95281.13
2022-10-09T06:11:31.688Z,95297.19
2022-10-09T06:14:00.725Z,95289.44
2022-10-09T06:16:33.465Z,95281.22
2022-10-09T06:19:00.538Z,95266.88
2022-10-09T06:21:28.467Z,95283.56
2022-10-09T06:23:58.558Z,95233.84
2022-10-09T06:26:29.207Z,95261.34
2022-10-09T06:28:56.811Z,95265.44
2022-10-09T06:31:26.847Z,95267.56
2022-10-09T06:33:54.457Z,95239.38
2022-10-09T06:36:25.134Z,95242.38
2022-10-09T06:38:53.150Z,95229.78
2022-10-09T06:41:25.681Z,95254.28
2022-10-09T06:43:57.279Z,95258.88
2022-10-09T06:46:27.342Z,95292.97
2022-10-09T06:48:54.360Z,95271.53
2022-10-09T06:51:23.373Z,95278.63
2022-10-09T06:53:53.243Z,95279.34
2022-10-09T06:56:22.535Z,95273.22
2022-10-09T06:58:49.723Z,95253.66
2022-10-09T07:01:20.736Z,95289.19
2022-10-09T07:03:54.139Z,95297.09
2022-10-09T07:06:24.272Z,95304.78
2022-10-09T07:08:53.535Z,95294.22
2022-10-09T07:11:23.408Z,95278.34
2022-10-09T07:13:54.398Z,95303.41
2022-10-09T07:16:24.411Z,95290.53
2022-10-09T07:18:52.006Z,95262.91
2022-10-09T07:21:19.917Z,95283.06
2022-10-09T07:23:47.416Z,95291.44
2022-10-09T07:26:19.131Z,95249.13
2022-10-09T07:28:47.299Z,95280.88
2022-10-09T07:31:14.895Z,95263.13
2022-10-09T07:33:42.001Z,95296.09
2022-10-09T07:36:10.027Z,95275.13
2022-10-09T07:38:37.374Z,95261.13
2022-10-09T07:41:09.421Z,95243.66
2022-10-09T07:43:41.065Z,95249.28
2022-10-09T07:46:12.258Z,95278.75
2022-10-09T07:48:39.462Z,95274.22
2022-10-09T07:51:22.398Z,95305.88
2022-10-09T07:53:49.711Z,95336.47
2022-10-09T07:56:29.164Z,95319.97
2022-10-09T07:59:01.435Z,95276.06
2022-10-09T08:01:29.386Z,95283.84
2022-10-09T08:03:58.381Z,95269.66
2022-10-09T08:06:25.230Z,95289.25
2022-10-09T08:08:54.198Z,95269.81
2022-10-09T08:11:22.459Z,95232.84
2022-10-09T08:13:50.542Z,95322.00
2022-10-09T08:16:19.599Z,95282.38
2022-10-09T08:18:47.321Z,95261.00
2022-10-09T08:21:16.952Z,95289.63
2022-10-09T08:23:44.314Z,95295.00
2022-10-09T08:26:20.090Z,95303.00
2022-10-09T08:28:55.423Z,95334.72
2022-10-09T08:31:23.204Z,95285.50
2022-10-09T08:33:55.094Z,95297.69
2022-10-09T08:36:23.498Z,95284.28
2022-10-09T08:38:51.494Z,95267.19
2022-10-09T08:41:33.112Z,95242.91
2022-10-09T08:44:09.915Z,95272.28
2022-10-09T08:47:04.577Z,95262.47
2022-10-09T08:49:55.221Z,95298.63
2022-10-09T08:52:34.818Z,95329.66
2022-10-09T08:55:13.185Z,95279.81
2022-10-09T08:57:40.170Z,95268.59
2022-10-09T09:00:15.648Z,95281.25
2022-10-09T09:03:10.966Z,95290.28
2022-10-09T09:05:51.970Z,95297.34
2022-10-09T09:08:38.091Z,95240.66
2022-10-09T09:11:38.730Z,95301.03
2022-10-09T09:14:23.993Z,95293.13
2022-10-09T09:17:05.767Z,95255.06
2022-10-09T09:19:57.290Z,95286.59
2022-10-09T09:22:25.166Z,95247.72
2022-10-09T09:24:54.665Z,95271.94
2022-10-09T09:27:31.656Z,95253.25
2022-10-09T09:30:13.406Z,95237.31
2022-10-09T09:32:44.422Z,95253.47
2022-10-09T09:35:39.962Z,95250.69
2022-10-09T09:38:08.139Z,95249.94
2022-10-09T09:40:37.255Z,95274.56
2022-10-09T09:43:17.761Z,95271.34
2022-10-09T09:45:45.828Z,95232.44
2022-10-09T09:48:22.524Z,95279.13
2022-10-09T09:51:10.260Z,95228.66
2022-10-09T09:53:43.636Z,95228.56
2022-10-09T09:56:11.054Z,95191.81
2022-10-09T09:58:45.799Z,95241.06
2022-10-09T10:01:22.708Z,95257.81
2022-10-09T10:03:52.250Z,95193.50
2022-10-09T10:06:31.611Z,95267.41
2022-10-09T10:09:19.258Z,95285.97
2022-10-09T10:11:47.550Z,95267.91
2022-10-09T10:14:16.378Z,95240.44
2022-10-09T10:16:44.094Z,95257.09
2022-10-09T10:19:22.742Z,95194.97
2022-10-09T10:21:59.746Z,95204.47
2022-10-09T10:24:35.773Z,95219.97
2022-10-09T10:27:17.125Z,95257.66
2022-10-09T10:29:46.973Z,95240.47
2022-10-09T10:32:32.894Z,95250.59
2022-10-09T10:35:17.192Z,95186.72
2022-10-09T10:37:56.980Z,95278.50
2022-10-09T10:40:26.947Z,95221.63
2022-10-09T10:43:09.301Z,95204.75
2022-10-09T10:45:58.549Z,95247.84
2022-10-09T10:48:37.267Z,95254.63
2022-10-09T10:51:29.218Z,95267.16
2022-10-09T10:54:26.871Z,95292.34
2022-10-09T10:57:03.183Z,95244.41
2022-10-09T10:59:39.832Z,95265.78
2022-10-09T11:02:32.518Z,95235.56
2022-10-09T11:05:14.649Z,95179.06
2022-10-09T11:07:47.337Z,95222.72
2022-10-09T11:10:23.170Z,95236.34
2022-10-09T11:13:05.146Z,95241.44
2022-10-09T11:15:56.443Z,95207.34
2022-10-09T11:19:00.496Z,95251.41
2022-10-09T11:21:42.822Z,95228.69
2022-10-09T11:24:40.162Z,95220.34
2022-10-09T11:27:14.005Z,95207.53
2022-10-09T11:29:48.429Z,95213.22
2022-10-09T11:32:38.520Z,95181.09
2022-10-09T11:35:15.842Z,95183.50
2022-10-09T11:37:45.437Z,95206.28
2022-10-09T11:40:12.066Z,95197.59
2022-10-09T11:42:39.631Z,95188.41
2022-10-09T11:45:50.135Z,95176.38
2022-10-09T11:48:21.818Z,95203.66
2022-10-09T11:50:51.412Z,95182.00
2022-10-09T11:53:25.071Z,95136.38
2022-10-09T11:56:21.848Z,95153.47
2022-10-09T11:58:58.602Z,95157.69
2022-10-09T12:01:47.616Z,95150.53
2022-10-09T12:04:20.913Z,95166.06
2022-10-09T12:06:54.847Z,95147.25
2022-10-09T12:09:31.426Z,95148.03
2022-10-09T12:12:22.924Z,95165.34
2022-10-09T12:14:52.039Z,95167.38
2022-10-09T12:17:21.579Z,95167.03
2022-10-09T12:20:15.658Z,95167.66
2022-10-09T12:23:01.424Z,95145.22
2022-10-09T12:25:44.203Z,95148.34
2022-10-09T12:28:44.839Z,95164.78
2022-10-09T12:31:21.851Z,95155.31
2022-10-09T12:33:55.150Z,95188.44
2022-10-09T12:36:27.103Z,95137.66
2022-10-09T12:38:55.377Z,95137.66
2022-10-09T12:41:33.826Z,95122.84
2022-10-09T12:44:00.714Z,95123.56
2022-10-09T12:46:39.323Z,95134.59
2022-10-09T12:49:19.273Z,95119.06
2022-10-09T12:51:56.355Z,95122.56
2022-10-09T12:54:25.648Z,95139.97
2022-10-09T12:56:55.202Z,95123.91
2022-10-09T12:59:25.119Z,95150.03
2022-10-09T13:01:56.842Z,95106.56
2022-10-09T13:04:30.954Z,95083.97
2022-10-09T13:06:59.819Z,95103.88
2022-10-09T13:09:34.204Z,95090.78
2022-10-09T13:12:07.934Z,95082.41
2022-10-09T13:14:36.529Z,95102.78
2022-10-09T13:17:03.682Z,95094.78
2022-10-09T13:19:33.645Z,95076.25
2022-10-09T13:22:04.014Z,95103.47
2022-10-09T13:24:30.755Z,95085.16
2022-10-09T13:26:57.557Z,95097.19
2022-10-09T13:29:24.466Z,95087.00
2022-10-09T13:31:51.194Z,95118.09
2022-10-09T13:34:18.931Z,95039.97
2022-10-09T13:36:45.727Z,95088.34
2022-10-09T13:39:14.906Z,95109.81
2022-10-09T13:41:43.810Z,95104.97
2022-10-09T13:44:10.930Z,95086.34
2022-10-09T13:46:37.848Z,95073.84
2022-10-09T13:49:04.657Z,95071.25
2022-10-09T13:51:32.104Z,95080.59
2022-10-09T13:53:59.081Z,95066.09
2022-10-09T13:56:26.167Z,95061.31
2022-10-09T13:58:52.997Z,95048.34
2022-10-09T14:01:19.904Z,95041.34
2022-10-09T14:03:46.642Z,95059.09
2022-10-09T14:06:13.406Z,95047.66
2022-10-09T14:08:40.141Z,95068.53
2022-10-09T14:11:06.955Z,95065.66
2022-10-09T14:13:33.718Z,95085.84
2022-10-09T14:16:05.305Z,95064.00
2022-10-09T14:18:32.123Z,95032.50
2022-10-09T14:20:59.162Z,95002.72
2022-10-09T14:23:26.420Z,95057.31
2022-10-09T14:25:53.194Z,95030.84
2022-10-09T14:28:20.008Z,95016.59
2022-10-09T14:30:46.827Z,95037.47
2022-10-09T14:33:13.554Z,95012.41
2022-10-09T14:35:40.347Z,95063.75
2022-10-09T14:38:07.109Z,95044.97
2022-10-09T14:40:33.798Z,95024.16
2022-10-09T14:43:00.761Z,95063.03
2022-10-09T14:45:29.292Z,95021.78
2022-10-09T14:47:56.971Z,95021.97
2022-10-09T14:50:23.746Z,94973.44
2022-10-09T14:52:50.915Z,95002.06
2022-10-09T14:55:17.971Z,95002.09
2022-10-09T14:57:44.802Z,94959.47
2022-10-09T15:00:12.684Z,94968.75
2022-10-09T15:02:39.667Z,94978.06
2022-10-09T15:05:07.370Z,94957.00
2022-10-09T15:07:34.424Z,94965.03
2022-10-09T15:10:01.160Z,94991.03
2022-10-09T15:12:27.887Z,94957.41
2022-10-09T15:14:54.753Z,94957.63
2022-10-09T15:17:22.115Z,94991.66
2022-10-09T15:19:48.822Z,94966.84
2022-10-09T15:22:15.753Z,94982.84
2022-10-09T15:24:42.414Z,95003.84
2022-10-09T15:27:09.491Z,94997.41
2022-10-09T15:29:36.249Z,94974.00
2022-10-09T15:32:03.906Z,95018.47
2022-10-09T15:34:30.901Z,95006.91
2022-10-09T15:36:57.621Z,94986.56
2022-10-09T15:39:24.420Z,95027.41
2022-10-09T15:41:51.109Z,94989.06
2022-10-09T15:44:20.088Z,94995.25
2022-10-09T15:46:47.859Z,94934.44
2022-10-09T15:49:14.966Z,94936.66
2022-10-09T15:51:42.351Z,94985.31
2022-10-09T15:54:10.894Z,94914.94
2022-10-09T15:56:40.134Z,94956.41
2022-10-09T15:59:11.022Z,94946.75
2022-10-09T16:01:37.756Z,94955.06
2022-10-09T16:04:04.554Z,94956.13
2022-10-09T16:06:31.369Z,94986.78
2022-10-09T16:08:58.702Z,94950.59
2022-10-09T16:11:27.005Z,94974.72
2022-10-09T16:13:55.677Z,94941.66
2022-10-09T16:16:26.089Z,94970.44
2022-10-09T16:18:53.772Z,94980.94
2022-10-09T16:21:24.406Z,94976.63
2022-10-09T16:23:55.848Z,94968.09
2022-10-09T16:26:25.435Z,94962.84
2022-10-09T16:28:52.823Z,94948.56
2022-10-09T16:31:24.518Z,94955.22
2022-10-09T16:33:52.145Z,94969.53
2022-10-09T16:36:18.867Z,94970.41
2022-10-09T16:38:46.474Z,94967.94
2022-10-09T16:41:17.963Z,94967.22
2022-10-09T16:43:46.491Z,94915.97
2022-10-09T16:46:19.404Z,94938.97
2022-10-09T16:48:47.181Z,94943.88
2022-10-09T16:51:16.831Z,94899.38
2022-10-09T16:53:43.854Z,94945.38
2022-10-09T16:56:16.519Z,94964.94
2022-10-09T16:58:43.821Z,94985.25
2022-10-09T17:01:12.466Z,94926.59
2022-10-09T17:03:41.410Z,94953.72
2022-10-09T17:06:14.532Z,94954.75
2022-10-09T17:08:41.743Z,94923.50
2022-10-09T17:11:11.746Z,94938.16
2022-10-09T17:13:39.625Z,94941.28
2022-10-09T17:16:08.191Z,94974.25
2022-10-09T17:18:36.127Z,94925.28
2022-10-09T17:21:04.634Z,94928.41
2022-10-09T17:23:31.791Z,94956.38
2022-10-09T17:25:58.965Z,94952.78
2022-10-09T17:28:26.826Z,94949.34
2022-10-09T17:30:53.535Z,94927.94
2022-10-09T17:33:20.362Z,94949.72
2022-10-09T17:35:47.077Z,94958.75
2022-10-09T17:38:13.933Z,94940.72
2022-10-09T17:40:41.697Z,94943.38
2022-10-09T17:43:09.030Z,94938.69
2022-10-09T17:45:40.652Z,94940.88
2022-10-09T17:48:08.681Z,94959.53
2022-10-09T17:50:36.381Z,94925.44
2022-10-09T17:53:04.121Z,94942.06
2022-10-09T17:55:31.237Z,94932.50
2022-10-09T17:57:58.418Z,94941.69
2022-10-09T18:00:25.279Z,94924.00
2022-10-09T18:02:51.999Z,94948.59
2022-10-09T18:05:18.750Z,94901.69
2022-10-09T18:07:45.397Z,94910.59
2022-10-09T18:10:16.036Z,94931.13
2022-10-09T18:12:43.766Z,94894.69
2022-10-09T18:15:11.070Z,94893.88
2022-10-09T18:17:37.815Z,94936.00
2022-10-09T18:20:04.999Z,94927.28
2022-10-09T18:22:32.040Z,94921.53
2022-10-09T18:24:58.777Z,94884.81
2022-10-09T18:27:25.885Z,94929.19
2022-10-09T18:29:52.576Z,94912.84
2022-10-09T18:32:19.298Z,94892.88
2022-10-09T18:34:46.679Z,94894.16
2022-10-09T18:37:13.865Z,94894.84
2022-10-09T18:39:40.581Z,94878.50
2022-10-09T18:42:07.375Z,94903.28
2022-10-09T18:44:40.481Z,94868.84
2022-10-09T18:47:12.824Z,94883.78
2022-10-09T18:49:44.353Z,94899.94
2022-10-09T18:52:13.016Z,94892.88
2022-10-09T18:54:42.859Z,94921.16
2022-10-09T18:57:10.903Z,94912.34
2022-10-09T18:59:39.143Z,94921.00
2022-10-09T19:02:06.569Z,94928.09
2022-10-09T19:04:33.695Z,94911.59
2022-10-09T19:07:00.943Z,94914.19
2022-10-09T19:09:28.059Z,94927.59
2022-10-09T19:11:54.942Z,94894.66
2022-10-09T19:14:21.834Z,94900.72
2022-10-09T19:16:48.707Z,94919.91
2022-10-09T19:19:15.471Z,94933.56
2022-10-09T19:21:44.062Z,94932.69
2022-10-09T19:24:12.921Z,94918.66
2022-10-09T19:26:40.269Z,94914.38
2022-10-09T19:29:07.949Z,94916.13
2022-10-09T19:31:36.129Z,94921.19
2022-10-09T19:34:04.774Z,94949.28
2022-10-09T19:36:34.275Z,94924.09
2022-10-09T19:39:01.757Z,94920.81
2022-10-09T19:41:29.059Z,94918.28
2022-10-09T19:43:56.103Z,94882.25
2022-10-09T19:46:22.888Z,94843.53
2022-10-09T19:48:50.505Z,94856.16
2022-10-09T19:51:23.026Z,94865.66
2022-10-09T19:53:52.080Z,94873.91
2022-10-09T19:56:22.775Z,94877.34
2022-10-09T19:58:49.746Z,94861.09
2022-10-09T20:01:20.231Z,94865.81
2022-10-09T20:03:48.250Z,94850.38
2022-10-09T20:06:15.218Z,94881.41
2022-10-09T20:08:43.371Z,94888.97
2022-10-09T20:11:11.661Z,94879.44
2022-10-09T20:13:39.637Z,94887.69
2022-10-09T20:16:10.185Z,94889.84
2022-10-09T20:18:39.453Z,94886.09
2022-10-09T20:21:06.661Z,94870.94
2022-10-09T20:23:33.365Z,94855.66
2022-10-09T20:26:05.266Z,94885.25
2022-10-09T20:28:34.157Z,94876.69
2022-10-09T20:31:06.492Z,94873.97
2022-10-09T20:33:38.408Z,94856.09
2022-10-09T20:36:06.330Z,94857.69
2022-10-09T20:38:33.694Z,94861.84
2022-10-09T20:41:08.265Z,94847.97
2022-10-09T20:43:35.873Z,94844.78
2022-10-09T20:46:11.779Z,94873.22
2022-10-09T20:48:38.476Z,94879.53
2022-10-09T20:51:05.758Z,94839.50
2022-10-09T20:53:32.854Z,94849.69
2022-10-09T20:56:05.060Z,94853.50
2022-10-09T20:58:32.553Z,94842.25
2022-10-09T21:00:59.857Z,94851.47
2022-10-09T21:03:26.973Z,94865.69
2022-10-09T21:05:53.819Z,94825.59
2022-10-09T21:08:20.545Z,94843.03
2022-10-09T21:10:49.526Z,94842.91
2022-10-09T21:13:16.865Z,94857.44
2022-10-09T21:15:49.041Z,94840.94
2022-10-09T21:18:17.922Z,94841.94
2022-10-09T21:20:46.265Z,94865.38
2022-10-09T21:23:15.572Z,94869.72
2022-10-09T21:25:53.387Z,94884.13
2022-10-09T21:28:21.842Z,94862.28
2022-10-09T21:30:49.719Z,94893.84
2022-10-09T21:33:17.600Z,94887.25
2022-10-09T21:35:50.262Z,94864.03
2022-10-09T21:38:19.302Z,94863.97
2022-10-09T21:40:47.113Z,94871.25
2022-10-09T21:43:14.257Z,94876.16
2022-10-09T21:45:41.472Z,94859.91
2022-10-09T21:48:08.808Z,94851.03
2022-10-09T21:50:36.801Z,94833.25
2022-10-09T21:53:04.515Z,94870.56
2022-10-09T21:55:31.514Z,94866.84
2022-10-09T21:57:58.648Z,94866.38
2022-10-09T22:00:25.877Z,94876.28
2022-10-09T22:02:53.050Z,94865.03
2022-10-09T22:05:19.967Z,94836.53
2022-10-09T22:07:46.770Z,94843.72
2022-10-09T22:10:14.533Z,94828.75
2022-10-09T22:12:41.277Z,94838.66
2022-10-09T22:15:08.213Z,94841.25
2022-10-09T22:17:34.955Z,94825.94
2022-10-09T22:20:01.731Z,94828.56
2022-10-09T22:22:28.841Z,94813.00
2022-10-09T22:24:55.949Z,94821.63
2022-10-09T22:27:22.669Z,94840.75
2022-10-09T22:29:49.342Z,94850.19
2022-10-09T22:32:16.248Z,94851.53
2022-10-09T22:34:42.974Z,94850.50
2022-10-09T22:37:09.702Z,94825.22
2022-10-09T22:39:36.387Z,94842.47
2022-10-09T22:42:03.113Z,94866.25
2022-10-09T22:44:29.906Z,94868.00
2022-10-09T22:46:56.686Z,94869.13
2022-10-09T22:49:23.375Z,94853.63
2022-10-09T22:51:50.214Z,94845.13
2022-10-09T22:54:19.202Z,94837.41
2022-10-09T22:56:46.500Z,94856.31
2022-10-09T22:59:20.482Z,94850.72
2022-10-09T23:01:53.570Z,94810.09
2022-10-09T23:04:21.995Z,94802.09
2022-10-09T23:06:54.390Z,94830.63
2022-10-09T23:09:23.084Z,94827.06
2022-10-09T23:11:50.066Z,94831.75
2022-10-09T23:14:17.216Z,94850.19
2022-10-09T23:16:44.319Z,94821.72
2022-10-09T23:19:11.879Z,94833.69
2022-10-09T23:21:42.165Z,94856.00
2022-10-09T23:24:11.598Z,94838.78
2022-10-09T23:26:38.585Z,94857.66
2022-10-09T23:29:08.882Z,94861.16
2022-10-09T23:31:36.674Z,94849.00
2022-10-09T23:34:05.159Z,94841.84
2022-10-09T23:36:32.236Z,94831.69
2022-10-09T23:39:01.516Z,94820.72
2022-10-09T23:41:29.622Z,94837.59
2022-10-09T23:43:57.327Z,94836.81
2022-10-09T23:46:26.994Z,94832.78
2022-10-09T23:48:54.007Z,94849.81
2022-10-09T23:51:23.131Z,94854.13
2022-10-09T23:53:50.098Z,94854.09
2022-10-09T23:56:21.545Z,94854.09
2022-10-09T23:58:48.691Z,94861.50
